Time;durP1;ratioP1;P1;durP2;ratioP2;P2;SDS_P1;SDS_P2;PMS_P1;PMS_P2;Temp;Humidity;BMP_temperature;BMP_pressure;BME280_temperature;BME280_humidity;BME280_pressure;Samples;Min_cycle;Max_cycle;Signal;HPM_P1;HPM_P2
2022/05/06 00:00:12;;;;;;;11.38;7.13;;;15.70;94.90;;;;;;4757571;30;20489;-62
2022/05/06 00:02:40;;;;;;;9.40;6.82;;;15.60;94.50;;;;;;4754424;30;20055;-62
2022/05/06 00:05:08;;;;;;;11.63;6.25;;;15.60;94.30;;;;;;4738703;30;20516;-63
2022/05/06 00:07:35;;;;;;;9.10;6.40;;;15.60;94.40;;;;;;4752505;30;20071;-63
2022/05/06 00:10:05;;;;;;;12.05;6.50;;;15.60;94.50;;;;;;4756483;30;20512;-63
2022/05/06 00:12:33;;;;;;;11.00;6.93;;;15.60;96.10;;;;;;4755724;30;20149;-63
2022/05/06 00:15:00;;;;;;;10.32;6.03;;;15.60;95.40;;;;;;4756203;30;20039;-63
2022/05/06 00:17:27;;;;;;;9.88;6.63;;;15.60;95.40;;;;;;4756113;30;20116;-63
2022/05/06 00:19:54;;;;;;;11.15;6.63;;;15.60;96.30;;;;;;4756117;30;20067;-63
2022/05/06 00:22:22;;;;;;;10.02;6.45;;;15.50;95.80;;;;;;4740774;30;20051;-63
2022/05/06 00:24:51;;;;;;;10.77;6.72;;;15.50;95.60;;;;;;4758192;30;20056;-63
2022/05/06 00:27:19;;;;;;;10.60;7.10;;;15.50;95.90;;;;;;4756996;30;20071;-63
2022/05/06 00:29:46;;;;;;;9.65;7.03;;;15.50;96.20;;;;;;4756749;30;20048;-63
2022/05/06 00:32:13;;;;;;;8.43;5.90;;;15.50;96.00;;;;;;4753233;30;20048;-63
2022/05/06 00:34:40;;;;;;;8.65;6.05;;;15.40;95.60;;;;;;4757799;30;20043;-63
2022/05/06 00:37:07;;;;;;;7.93;6.07;;;15.40;95.60;;;;;;4755985;30;20067;-63
2022/05/06 00:39:34;;;;;;;12.95;6.82;;;15.40;96.10;;;;;;4740717;30;20067;-62
2022/05/06 00:42:01;;;;;;;10.50;6.43;;;15.40;96.70;;;;;;4739875;30;20056;-63
2022/05/06 00:44:29;;;;;;;9.80;5.90;;;15.40;95.90;;;;;;4756280;30;20420;-63
2022/05/06 00:46:58;;;;;;;8.35;5.97;;;15.40;95.20;;;;;;4751892;30;20052;-63
2022/05/06 00:49:25;;;;;;;9.48;6.03;;;15.40;95.50;;;;;;4755156;30;20040;-63
2022/05/06 00:51:53;;;;;;;9.07;5.63;;;15.40;95.70;;;;;;4754299;30;20047;-63
2022/05/06 00:54:22;;;;;;;10.48;6.65;;;15.40;97.00;;;;;;4740324;30;20047;-63
2022/05/06 00:56:50;;;;;;;9.05;6.53;;;15.30;96.10;;;;;;4741306;30;20102;-63
2022/05/06 00:59:17;;;;;;;12.43;6.85;;;15.30;96.10;;;;;;4754097;30;20051;-63
2022/05/06 01:01:45;;;;;;;13.57;7.80;;;15.30;96.00;;;;;;4735270;30;20044;-63
2022/05/06 01:04:18;;;;;;;13.38;7.80;;;15.30;96.30;;;;;;4737898;30;20055;-63
2022/05/06 01:06:48;;;;;;;18.13;7.40;;;15.30;96.30;;;;;;4741448;30;20114;-63
2022/05/06 01:09:18;;;;;;;15.55;6.78;;;15.20;96.40;;;;;;4736540;30;20959;-63
2022/05/06 01:11:48;;;;;;;13.27;7.05;;;15.20;96.70;;;;;;4727244;30;20052;-63
2022/05/06 01:14:33;;;;;;;13.40;7.75;;;15.20;96.60;;;;;;4754329;30;20168;-64
2022/05/06 01:17:09;;;;;;;11.50;6.63;;;15.20;96.40;;;;;;4754967;30;20477;-63
2022/05/06 01:19:36;;;;;;;10.93;7.05;;;15.20;96.30;;;;;;4743677;30;20056;-63
2022/05/06 01:22:04;;;;;;;9.50;6.65;;;15.10;96.40;;;;;;4752390;30;20056;-63
2022/05/06 01:24:31;;;;;;;9.55;6.22;;;15.10;96.50;;;;;;4747073;30;20129;-63
2022/05/06 01:27:04;;;;;;;10.13;6.05;;;15.00;96.40;;;;;;4740518;30;20052;-63
2022/05/06 01:29:32;;;;;;;11.68;6.82;;;15.00;96.20;;;;;;4737808;30;20052;-64
2022/05/06 01:32:01;;;;;;;9.70;7.65;;;14.90;96.80;;;;;;4752412;30;20098;-63
2022/05/06 01:34:30;;;;;;;11.82;6.70;;;15.00;96.50;;;;;;4755331;30;20131;-63
2022/05/06 01:37:02;;;;;;;13.38;7.28;;;15.00;96.60;;;;;;4738254;30;20048;-63
2022/05/06 01:39:33;;;;;;;10.43;6.95;;;15.00;96.70;;;;;;4744434;30;20048;-63
2022/05/06 01:42:05;;;;;;;10.10;6.55;;;15.00;96.90;;;;;;4739853;30;20151;-63
2022/05/06 01:45:01;;;;;;;9.10;6.47;;;14.90;97.00;;;;;;4751792;30;20071;-63
2022/05/06 01:47:33;;;;;;;12.95;6.85;;;15.00;97.40;;;;;;4754502;30;20143;-63
2022/05/06 01:50:05;;;;;;;10.38;6.88;;;15.00;97.10;;;;;;4755902;30;20444;-63
2022/05/06 01:52:38;;;;;;;10.23;6.60;;;15.00;96.90;;;;;;4754585;30;20080;-63
2022/05/06 01:55:06;;;;;;;8.90;6.45;;;14.90;97.20;;;;;;4737395;30;20710;-63
2022/05/06 01:57:46;;;;;;;10.48;6.65;;;14.90;97.80;;;;;;4744633;30;20054;-63
2022/05/06 02:00:13;;;;;;;11.73;6.28;;;14.80;97.90;;;;;;4727334;30;20455;-63
2022/05/06 02:02:45;;;;;;;11.63;7.20;;;14.80;98.10;;;;;;4750920;30;20044;-63
2022/05/06 02:05:21;;;;;;;10.98;7.78;;;14.70;98.40;;;;;;4741806;30;20055;-63
2022/05/06 02:07:55;;;;;;;10.23;6.55;;;14.70;98.40;;;;;;4725592;30;20055;-63
2022/05/06 02:10:25;;;;;;;9.93;6.47;;;14.70;98.20;;;;;;4754364;30;20076;-63
2022/05/06 02:13:02;;;;;;;12.77;6.97;;;14.70;98.40;;;;;;4744205;30;20127;-64
2022/05/06 02:15:38;;;;;;;10.30;6.07;;;14.70;98.60;;;;;;4755841;30;20063;-64
2022/05/06 02:18:20;;;;;;;7.90;6.00;;;14.70;98.50;;;;;;4742369;30;20152;-63
2022/05/06 02:21:13;;;;;;;9.40;5.70;;;14.60;99.00;;;;;;4754262;30;20311;-63
2022/05/06 02:23:52;;;;;;;11.40;6.28;;;14.60;98.80;;;;;;4753655;30;20060;-63
2022/05/06 02:26:29;;;;;;;9.40;6.28;;;14.70;98.90;;;;;;4755026;30;20055;-64
2022/05/06 02:29:00;;;;;;;9.77;6.00;;;14.70;98.50;;;;;;4754872;30;20056;-63
2022/05/06 02:34:18;;;;;;;8.35;5.43;;;14.70;98.70;;;;;;4739404;30;20055;-64
2022/05/06 02:36:52;;;;;;;8.20;5.75;;;14.70;98.60;;;;;;4739872;30;20065;-63
2022/05/06 02:39:19;;;;;;;11.30;6.25;;;14.70;98.40;;;;;;4755254;30;20056;-63
2022/05/06 02:41:52;;;;;;;8.40;5.75;;;14.70;98.60;;;;;;4738351;30;20060;-64
2022/05/06 02:44:20;;;;;;;7.72;5.55;;;14.80;98.50;;;;;;4735229;30;20189;-64
2022/05/06 02:46:49;;;;;;;8.35;5.28;;;14.80;98.10;;;;;;4737924;30;20078;-63
2022/05/06 02:49:16;;;;;;;8.45;5.65;;;14.90;98.20;;;;;;4752786;30;20153;-63
2022/05/06 02:51:43;;;;;;;7.55;5.43;;;14.80;98.40;;;;;;4749264;30;20204;-63
2022/05/06 02:54:10;;;;;;;7.72;5.75;;;14.80;98.30;;;;;;4753109;30;20055;-64
2022/05/06 02:56:39;;;;;;;10.85;6.43;;;14.80;98.20;;;;;;4739050;30;20044;-63
2022/05/06 02:59:07;;;;;;;9.20;5.88;;;14.90;98.00;;;;;;4730384;30;20059;-64
2022/05/06 03:01:38;;;;;;;9.25;6.00;;;14.80;98.20;;;;;;4746764;30;20044;-63
2022/05/06 03:04:11;;;;;;;10.77;6.30;;;14.80;98.40;;;;;;4742505;30;20070;-63
2022/05/06 03:06:44;;;;;;;9.93;6.03;;;14.80;98.20;;;;;;4755827;30;20105;-63
2022/05/06 03:09:16;;;;;;;8.95;5.65;;;14.90;98.30;;;;;;4757878;30;20492;-64
2022/05/06 03:11:43;;;;;;;12.50;5.95;;;14.90;98.20;;;;;;4739609;30;20059;-63
2022/05/06 03:14:16;;;;;;;11.88;6.00;;;14.90;98.20;;;;;;4738826;30;20059;-63
2022/05/06 03:16:57;;;;;;;11.85;5.53;;;14.90;98.10;;;;;;4756915;30;20059;-63
2022/05/06 03:19:25;;;;;;;8.85;5.38;;;14.80;98.30;;;;;;4741685;30;20865;-63
2022/05/06 03:21:54;;;;;;;9.43;6.10;;;14.80;98.40;;;;;;4758200;30;20059;-63
2022/05/06 03:24:22;;;;;;;10.13;6.47;;;14.80;98.30;;;;;;4742742;30;20052;-63
2022/05/06 03:26:49;;;;;;;7.65;5.43;;;14.70;98.70;;;;;;4740315;30;20043;-65
2022/05/06 03:29:16;;;;;;;9.63;5.80;;;14.60;99.10;;;;;;4742463;30;20058;-64
2022/05/06 03:31:44;;;;;;;11.05;5.57;;;14.60;99.50;;;;;;4741994;30;20052;-63
2022/05/06 03:34:12;;;;;;;9.48;6.10;;;14.60;99.40;;;;;;4754246;30;20060;-63
2022/05/06 03:36:42;;;;;;;10.43;5.88;;;14.60;99.90;;;;;;4758114;30;20087;-63
2022/05/06 03:39:12;;;;;;;8.02;5.40;;;14.60;99.90;;;;;;4739912;30;20135;-63
2022/05/06 03:41:48;;;;;;;8.73;5.50;;;14.60;99.90;;;;;;4756899;30;20516;-63
2022/05/06 03:44:16;;;;;;;8.35;5.05;;;14.70;99.90;;;;;;4735359;30;20062;-63
2022/05/06 03:46:46;;;;;;;9.52;5.38;;;14.60;99.90;;;;;;4756936;30;20396;-63
2022/05/06 03:49:19;;;;;;;9.85;5.47;;;14.40;99.90;;;;;;4742365;30;20044;-63
2022/05/06 03:51:47;;;;;;;9.63;5.50;;;14.40;99.90;;;;;;4757706;30;20044;-63
2022/05/06 03:54:18;;;;;;;8.43;4.90;;;14.50;99.90;;;;;;4757412;30;20040;-63
2022/05/06 03:56:46;;;;;;;10.18;6.65;;;14.50;99.90;;;;;;4756985;30;20118;-63
2022/05/06 03:59:14;;;;;;;12.35;5.93;;;14.40;99.90;;;;;;4739314;30;20279;-63
2022/05/06 04:01:47;;;;;;;9.63;5.63;;;14.50;99.90;;;;;;4756081;30;20160;-63
2022/05/06 04:04:22;;;;;;;10.70;5.47;;;14.40;99.90;;;;;;4756191;30;20536;-63
2022/05/06 04:06:49;;;;;;;10.18;5.28;;;14.40;99.90;;;;;;4753306;30;20087;-64
2022/05/06 04:09:18;;;;;;;8.30;5.40;;;14.30;99.90;;;;;;4756060;30;20477;-63
2022/05/06 04:11:45;;;;;;;9.05;5.75;;;14.30;99.90;;;;;;4736325;30;20067;-64
2022/05/06 04:14:12;;;;;;;9.05;5.45;;;14.30;99.90;;;;;;4718991;30;20078;-63
2022/05/06 04:16:44;;;;;;;9.15;5.95;;;14.30;99.90;;;;;;4749178;30;20070;-63
2022/05/06 04:19:24;;;;;;;12.20;6.07;;;14.40;99.90;;;;;;4752662;30;20067;-63
2022/05/06 04:24:49;;;;;;;9.65;6.25;;;14.30;99.90;;;;;;4737265;30;20063;-64
2022/05/06 04:27:17;;;;;;;11.48;5.88;;;14.40;99.90;;;;;;4753874;30;20060;-64
2022/05/06 04:29:46;;;;;;;16.80;6.75;;;14.40;99.90;;;;;;4739631;30;20046;-63
2022/05/06 04:32:13;;;;;;;11.43;6.65;;;14.40;99.90;;;;;;4734382;30;20056;-64
2022/05/06 04:34:40;;;;;;;13.45;6.93;;;14.50;99.90;;;;;;4738117;30;20076;-63
2022/05/06 04:37:10;;;;;;;9.45;5.70;;;14.50;99.90;;;;;;4749519;30;20997;-63
2022/05/06 04:39:42;;;;;;;10.10;6.38;;;14.40;99.90;;;;;;4753612;30;20130;-63
2022/05/06 04:42:10;;;;;;;9.10;5.63;;;14.60;99.90;;;;;;4753327;30;20171;-63
2022/05/06 04:44:38;;;;;;;9.88;6.80;;;14.60;99.90;;;;;;4739297;30;20080;-63
2022/05/06 04:47:06;;;;;;;11.60;7.00;;;14.60;99.90;;;;;;4752499;30;20055;-63
2022/05/06 04:49:35;;;;;;;10.57;6.78;;;14.60;99.90;;;;;;4752798;30;20052;-63
2022/05/06 04:52:02;;;;;;;11.18;6.40;;;14.60;99.90;;;;;;4737034;30;20510;-63
2022/05/06 04:54:30;;;;;;;10.15;6.25;;;14.70;99.90;;;;;;4751918;30;20097;-63
2022/05/06 04:56:58;;;;;;;11.75;6.90;;;14.80;99.90;;;;;;4752692;30;20844;-63
2022/05/06 04:59:31;;;;;;;11.80;6.40;;;14.80;99.90;;;;;;4735916;30;20049;-63
2022/05/06 05:01:59;;;;;;;11.45;6.85;;;15.00;99.90;;;;;;4712272;30;20756;-63
2022/05/06 05:04:30;;;;;;;9.25;6.20;;;15.10;99.90;;;;;;4718472;30;20056;-63
2022/05/06 05:07:08;;;;;;;9.32;6.13;;;15.10;99.90;;;;;;4722029;30;20072;-63
2022/05/06 05:09:42;;;;;;;14.23;6.93;;;15.10;99.90;;;;;;4706860;30;20120;-63
2022/05/06 05:12:10;;;;;;;9.52;6.55;;;15.20;99.90;;;;;;4694294;30;20108;-63
2022/05/06 05:14:43;;;;;;;;;;;15.30;99.90;;;;;;4705773;30;20051;-63
2022/05/06 05:17:12;;;;;;;12.93;7.22;;;15.30;99.70;;;;;;4705530;30;19973;-63
2022/05/06 05:19:43;;;;;;;11.27;6.78;;;15.30;99.90;;;;;;4716605;30;20104;-64
2022/05/06 05:22:11;;;;;;;11.90;6.65;;;15.30;99.90;;;;;;4681542;30;20190;-63
2022/05/06 05:24:39;;;;;;;11.43;7.88;;;15.30;99.90;;;;;;4702081;30;20142;-65
2022/05/06 05:27:08;;;;;;;13.95;7.78;;;15.50;99.30;;;;;;4708826;30;22917;-64
2022/05/06 05:29:36;;;;;;;14.43;8.13;;;15.40;99.30;;;;;;4709794;30;20844;-63
2022/05/06 05:32:04;;;;;;;12.88;7.75;;;15.50;99.30;;;;;;4721231;30;20152;-64
2022/05/06 05:34:32;;;;;;;13.25;7.88;;;15.50;98.90;;;;;;4715154;30;20834;-63
2022/05/06 05:36:59;;;;;;;15.52;8.15;;;15.50;99.00;;;;;;4702273;30;22480;-63
2022/05/06 05:39:26;;;;;;;12.43;7.43;;;15.60;99.40;;;;;;4716972;30;20051;-63
2022/05/06 05:41:57;;;;;;;13.02;8.00;;;15.60;98.90;;;;;;4721374;30;20055;-63
2022/05/06 05:49:59;;;;;;;9.88;6.38;;;15.90;98.90;;;;;;4719057;30;20197;-63
2022/05/06 05:52:29;;;;;;;17.73;7.57;;;15.80;98.60;;;;;;4706677;30;20043;-63
2022/05/06 05:54:56;;;;;;;12.57;7.50;;;15.90;98.40;;;;;;4713131;30;20048;-63
2022/05/06 05:57:23;;;;;;;12.18;7.40;;;15.80;98.60;;;;;;4717015;30;20131;-64
2022/05/06 05:59:51;;;;;;;12.02;7.43;;;15.90;98.80;;;;;;4720247;30;20047;-64
2022/05/06 06:02:21;;;;;;;13.15;7.65;;;15.90;97.90;;;;;;4701146;30;20196;-64
2022/05/06 06:04:51;;;;;;;11.50;6.50;;;16.00;98.10;;;;;;4695798;30;20064;-63
2022/05/06 06:07:18;;;;;;;13.70;7.20;;;16.00;97.10;;;;;;4721121;30;20063;-63
2022/05/06 06:09:52;;;;;;;14.77;6.22;;;15.90;96.90;;;;;;4714459;30;20067;-63
2022/05/06 06:12:19;;;;;;;13.45;6.82;;;15.90;96.80;;;;;;4682546;30;20524;-63
2022/05/06 06:14:48;;;;;;;11.43;7.03;;;16.00;97.00;;;;;;4715160;30;20052;-63
2022/05/06 06:17:16;;;;;;;10.82;7.32;;;16.00;96.60;;;;;;4693746;30;20058;-63
2022/05/06 06:19:43;;;;;;;12.02;7.10;;;16.00;96.10;;;;;;4699701;30;20059;-64
2022/05/06 06:22:10;;;;;;;13.07;7.80;;;16.00;96.20;;;;;;4720985;30;20068;-63
2022/05/06 06:24:52;;;;;;;10.10;6.60;;;16.00;95.90;;;;;;4704125;30;20052;-63
2022/05/06 06:27:19;;;;;;;12.57;7.40;;;16.00;95.60;;;;;;4708988;30;20125;-64
2022/05/06 06:29:49;;;;;;;12.57;7.32;;;16.00;95.10;;;;;;4709038;30;20835;-64
2022/05/06 06:32:17;;;;;;;11.70;7.30;;;16.10;95.60;;;;;;4702938;30;20047;-63
2022/05/06 06:34:45;;;;;;;11.27;7.45;;;16.10;95.10;;;;;;4722830;30;22531;-63
2022/05/06 06:37:14;;;;;;;12.35;7.97;;;16.10;95.70;;;;;;4712882;30;20252;-63
2022/05/06 06:39:45;;;;;;;14.00;8.23;;;16.20;95.50;;;;;;4712469;30;20086;-62
2022/05/06 06:42:12;;;;;;;13.27;7.82;;;16.20;95.20;;;;;;4709889;30;20106;-63
2022/05/06 06:44:54;;;;;;;13.55;7.78;;;16.30;94.80;;;;;;4714919;30;20243;-63
2022/05/06 06:47:54;;;;;;;13.93;8.20;;;16.40;95.30;;;;;;4710166;30;20063;-63
2022/05/06 06:50:39;;;;;;;13.65;7.20;;;16.40;95.00;;;;;;4711006;30;20063;-63
2022/05/06 06:53:45;;;;;;;12.30;7.50;;;16.50;94.70;;;;;;4627234;30;20467;-63
2022/05/06 06:56:13;;;;;;;12.82;7.72;;;16.50;94.90;;;;;;4629085;30;20065;-63
2022/05/06 06:58:40;;;;;;;12.85;8.07;;;16.60;94.60;;;;;;4674694;30;20067;-63
2022/05/06 07:01:07;;;;;;;12.50;7.22;;;16.70;95.80;;;;;;4725385;30;20055;-63
2022/05/06 07:03:34;;;;;;;12.90;8.13;;;16.70;95.30;;;;;;4724579;30;20780;-63
2022/05/06 07:14:19;;;;;;;14.43;7.75;;;17.10;95.10;;;;;;4726761;30;20047;-63
2022/05/06 07:16:46;;;;;;;12.32;8.07;;;17.10;95.00;;;;;;4726947;30;20058;-63
2022/05/06 07:19:13;;;;;;;12.45;8.30;;;17.00;94.90;;;;;;4726358;30;20998;-64
2022/05/06 07:21:40;;;;;;;11.95;7.70;;;17.10;94.80;;;;;;4723192;30;20051;-63
2022/05/06 07:24:08;;;;;;;13.10;7.68;;;17.20;94.70;;;;;;4727165;30;20052;-63
2022/05/06 07:26:35;;;;;;;11.52;7.63;;;17.30;93.90;;;;;;4723270;30;20091;-63
2022/05/06 07:29:02;;;;;;;12.70;7.57;;;17.30;93.90;;;;;;4725796;30;20063;-63
2022/05/06 07:31:29;;;;;;;13.80;7.88;;;17.50;94.00;;;;;;4710664;30;20047;-63
2022/05/06 07:33:57;;;;;;;12.50;7.78;;;17.60;93.50;;;;;;4729224;30;20207;-63
2022/05/06 07:36:24;;;;;;;14.40;8.15;;;17.60;93.00;;;;;;4723422;30;20196;-63
2022/05/06 07:38:51;;;;;;;12.05;8.25;;;17.70;93.20;;;;;;4724491;30;20131;-63
2022/05/06 07:41:18;;;;;;;10.88;7.22;;;17.70;92.80;;;;;;4707194;30;20054;-63
2022/05/06 07:43:45;;;;;;;14.32;7.80;;;17.80;93.70;;;;;;4725345;29;20060;-63
2022/05/06 07:46:13;;;;;;;15.38;7.63;;;17.80;92.10;;;;;;4701705;30;20056;-63
2022/05/06 07:48:41;;;;;;;11.48;7.18;;;17.80;92.70;;;;;;4724301;30;20043;-64
2022/05/06 07:51:08;;;;;;;9.57;6.60;;;17.90;93.10;;;;;;4724986;30;20060;-64
2022/05/06 07:53:35;;;;;;;11.43;6.88;;;18.00;92.30;;;;;;4719977;30;20063;-64
2022/05/06 07:56:03;;;;;;;10.75;6.20;;;18.10;91.90;;;;;;4715601;29;21072;-64
2022/05/06 07:58:30;;;;;;;11.23;6.70;;;18.20;91.40;;;;;;4722248;30;20424;-63
2022/05/06 08:00:57;;;;;;;9.80;6.95;;;18.20;91.20;;;;;;4721725;30;20270;-63
2022/05/06 08:06:11;;;;;;;11.68;7.00;;;18.30;91.60;;;;;;4726181;30;20059;-63
2022/05/06 08:08:39;;;;;;;11.77;6.65;;;18.30;90.30;;;;;;4725006;30;20094;-64
2022/05/06 08:11:06;;;;;;;11.30;6.15;;;18.40;90.10;;;;;;4725472;30;20062;-63
2022/05/06 08:13:33;;;;;;;12.32;5.95;;;18.50;90.60;;;;;;4720829;30;20147;-63
2022/05/06 08:16:00;;;;;;;8.82;5.43;;;18.80;90.20;;;;;;4718069;30;20054;-63
2022/05/06 08:18:28;;;;;;;8.57;6.05;;;18.80;90.40;;;;;;4724476;30;20043;-63
2022/05/06 08:20:55;;;;;;;10.32;5.78;;;18.80;86.60;;;;;;4724597;30;20047;-62
2022/05/06 08:23:23;;;;;;;7.78;5.30;;;18.60;84.40;;;;;;4710954;30;20051;-62
2022/05/06 08:25:51;;;;;;;7.18;5.65;;;18.80;87.10;;;;;;4722818;30;20058;-63
2022/05/06 08:28:19;;;;;;;8.70;5.72;;;18.80;85.00;;;;;;4722986;30;20059;-63
2022/05/06 08:30:48;;;;;;;7.97;4.85;;;18.90;86.40;;;;;;4721228;30;22521;-63
2022/05/06 08:33:16;;;;;;;8.32;5.22;;;19.10;86.50;;;;;;4723885;30;20051;-63
2022/05/06 08:35:43;;;;;;;10.27;6.00;;;19.20;85.20;;;;;;4714262;30;20047;-63
2022/05/06 08:38:12;;;;;;;8.82;5.70;;;19.20;84.40;;;;;;4716275;30;20055;-63
2022/05/06 08:40:39;;;;;;;7.05;5.35;;;19.50;86.20;;;;;;4722527;30;20152;-64
2022/05/06 08:43:06;;;;;;;9.30;5.57;;;19.70;83.30;;;;;;4715407;30;20052;-63
2022/05/06 08:51:13;;;;;;;10.15;5.38;;;19.70;82.30;;;;;;4721056;30;22817;-63
2022/05/06 08:53:41;;;;;;;11.85;6.18;;;19.70;81.90;;;;;;4699996;30;20052;-64
2022/05/06 08:56:08;;;;;;;10.38;5.72;;;19.60;82.00;;;;;;4705945;30;20984;-64
2022/05/06 08:58:40;;;;;;;10.73;5.88;;;19.70;83.30;;;;;;4722112;30;20130;-64
2022/05/06 09:01:12;;;;;;;8.10;6.05;;;19.60;81.10;;;;;;4722772;30;20134;-63
2022/05/06 09:03:44;;;;;;;8.18;5.05;;;19.70;85.20;;;;;;4713656;30;20094;-64
2022/05/06 09:06:23;;;;;;;8.90;4.78;;;19.90;82.60;;;;;;4724353;30;20469;-64
2022/05/06 09:08:51;;;;;;;9.10;5.57;;;19.80;81.80;;;;;;4721573;30;20064;-64
2022/05/06 09:16:39;;;;;;;10.98;5.97;;;19.90;84.70;;;;;;4720928;30;22713;-64
2022/05/06 09:17:21;;;;;;;7.30;5.78;;;20.10;85.20;;;;;;4724337;30;20051;-64
2022/05/06 09:19:49;;;;;;;8.98;5.95;;;20.30;83.20;;;;;;4721911;30;20436;-64
2022/05/06 09:22:16;;;;;;;13.95;6.13;;;20.70;79.60;;;;;;4726086;30;20066;-64
2022/05/06 09:24:50;;;;;;;8.82;6.30;;;20.80;80.10;;;;;;4720499;30;20067;-64
2022/05/06 09:27:18;;;;;;;9.02;6.05;;;20.70;78.80;;;;;;4722507;30;20056;-63
2022/05/06 09:29:49;;;;;;;7.05;5.80;;;20.70;79.80;;;;;;4720458;30;22443;-64
2022/05/06 09:32:24;;;;;;;;;;;20.50;79.20;;;;;;4707797;30;20393;-64
2022/05/06 09:34:52;;;;;;;11.50;4.72;;;20.60;78.30;;;;;;4722878;30;19933;-64
2022/05/06 09:37:35;;;;;;;6.00;5.15;;;20.90;78.30;;;;;;4721111;30;20808;-64
2022/05/06 09:40:05;;;;;;;6.22;4.85;;;20.90;77.90;;;;;;4715844;30;20048;-63
2022/05/06 09:42:37;;;;;;;8.40;5.38;;;20.90;79.00;;;;;;4724424;30;20064;-64
2022/05/06 09:45:05;;;;;;;7.53;4.80;;;20.80;77.40;;;;;;4705598;30;20150;-64
2022/05/06 09:47:33;;;;;;;7.93;5.47;;;20.80;76.60;;;;;;4722540;30;20316;-64
2022/05/06 09:50:06;;;;;;;10.05;4.88;;;20.70;77.20;;;;;;4700873;30;20064;-63
2022/05/06 09:52:33;;;;;;;9.55;5.07;;;20.70;77.50;;;;;;4722546;30;20047;-64
2022/05/06 09:55:02;;;;;;;7.03;4.93;;;20.70;77.40;;;;;;4708440;30;20051;-64
2022/05/06 09:57:32;;;;;;;11.75;5.38;;;20.80;78.00;;;;;;4705355;30;20067;-64
2022/05/06 09:59:59;;;;;;;7.53;4.82;;;20.80;75.90;;;;;;4723308;30;20048;-64
2022/05/06 10:02:26;;;;;;;7.03;4.63;;;20.80;75.80;;;;;;4709412;30;20051;-64
2022/05/06 10:04:54;;;;;;;5.93;4.80;;;21.10;77.00;;;;;;4705501;30;22683;-64
2022/05/06 10:07:25;;;;;;;6.35;4.70;;;21.40;76.80;;;;;;4725138;30;20093;-64
2022/05/06 10:09:56;;;;;;;6.65;4.82;;;21.50;75.40;;;;;;4717140;30;20067;-64
2022/05/06 10:12:25;;;;;;;10.32;5.10;;;21.50;75.80;;;;;;4724050;30;20055;-64
2022/05/06 10:14:54;;;;;;;6.95;4.07;;;21.50;75.40;;;;;;4723136;30;20051;-64
2022/05/06 10:17:54;;;;;;;4.80;3.90;;;21.50;75.40;;;;;;4720234;30;20071;-64
2022/05/06 10:20:37;;;;;;;5.93;3.67;;;21.50;74.20;;;;;;4720073;30;20058;-64
2022/05/06 10:23:04;;;;;;;;;;;21.50;74.10;;;;;;4715103;30;20052;-64
2022/05/06 10:25:40;;;;;;;6.10;3.90;;;21.60;74.30;;;;;;4713436;30;20038;-64
2022/05/06 10:34:07;;;;;;;5.22;3.42;;;21.90;72.30;;;;;;4721678;30;20063;-64
2022/05/06 10:36:43;;;;;;;4.45;3.72;;;21.90;68.40;;;;;;4720838;30;20047;-63
2022/05/06 10:39:35;;;;;;;6.13;3.50;;;21.90;68.90;;;;;;4692278;30;20896;-65
2022/05/06 10:42:10;;;;;;;7.30;3.58;;;22.00;69.20;;;;;;4725475;30;21850;-65
2022/05/06 10:44:50;;;;;;;6.53;3.67;;;22.00;71.60;;;;;;4720158;30;20075;-65
2022/05/06 10:47:20;;;;;;;5.63;3.42;;;22.00;71.80;;;;;;4721737;30;20063;-64
2022/05/06 10:49:52;;;;;;;6.25;3.45;;;22.10;68.90;;;;;;4707758;30;20092;-65
2022/05/06 10:52:25;;;;;;;5.23;3.03;;;22.00;68.00;;;;;;4724543;30;20673;-66
2022/05/06 10:54:55;;;;;;;7.28;3.33;;;21.90;68.80;;;;;;4706362;30;22593;-64
2022/05/06 10:57:27;;;;;;;6.38;3.65;;;22.00;69.70;;;;;;4723714;30;20055;-65
2022/05/06 11:00:07;;;;;;;5.13;3.10;;;22.10;70.80;;;;;;4724948;30;20475;-65
2022/05/06 11:02:38;;;;;;;5.60;3.17;;;22.40;68.80;;;;;;4705939;30;20103;-65
2022/05/06 11:05:07;;;;;;;4.20;2.25;;;22.70;68.10;;;;;;4707401;30;20112;-64
2022/05/06 11:07:37;;;;;;;3.40;2.67;;;22.80;64.70;;;;;;4703576;30;20059;-63
2022/05/06 11:10:33;;;;;;;8.52;3.70;;;22.70;64.90;;;;;;4722109;30;20066;-64
2022/05/06 11:13:24;;;;;;;6.53;3.40;;;22.70;65.80;;;;;;4724441;30;20059;-64
2022/05/06 11:15:52;;;;;;;4.45;2.78;;;22.70;64.80;;;;;;4726260;29;20515;-66
2022/05/06 11:18:20;;;;;;;5.82;2.28;;;22.80;63.40;;;;;;4722311;30;20055;-67
2022/05/06 11:20:47;;;;;;;3.95;2.10;;;22.90;61.80;;;;;;4725912;30;20091;-64
2022/05/06 11:23:14;;;;;;;5.85;3.00;;;22.80;62.00;;;;;;4710715;30;20063;-64
2022/05/06 11:25:47;;;;;;;4.75;2.90;;;22.70;65.90;;;;;;4716392;30;20130;-66
2022/05/06 11:28:20;;;;;;;3.35;2.90;;;22.60;64.30;;;;;;4714079;30;20052;-65
2022/05/06 11:30:49;;;;;;;7.65;2.33;;;22.50;63.80;;;;;;4728152;30;20056;-64
2022/05/06 11:33:32;;;;;;;3.42;2.55;;;22.70;64.70;;;;;;4725653;30;20060;-65
2022/05/06 11:36:02;;;;;;;5.03;2.10;;;22.70;64.00;;;;;;4728334;30;20060;-62
2022/05/06 11:38:34;;;;;;;4.20;2.33;;;22.70;61.20;;;;;;4727005;30;20051;-65
2022/05/06 11:41:10;;;;;;;3.42;2.03;;;22.90;61.90;;;;;;4726509;30;20048;-64
2022/05/06 11:43:38;;;;;;;3.60;2.50;;;22.90;62.80;;;;;;4728435;30;20063;-64
2022/05/06 11:48:52;;;;;;;2.88;2.28;;;22.80;59.00;;;;;;4727835;30;22513;-65
2022/05/06 11:51:40;;;;;;;4.10;2.13;;;22.80;60.80;;;;;;4727427;30;20067;-64
2022/05/06 11:54:09;;;;;;;4.82;2.10;;;22.80;58.20;;;;;;4727581;30;20051;-64
2022/05/06 11:56:39;;;;;;;3.53;2.00;;;22.90;59.60;;;;;;4720808;30;20055;-64
2022/05/06 11:59:09;;;;;;;3.45;1.77;;;23.00;59.30;;;;;;4694640;30;20054;-64
2022/05/06 12:01:38;;;;;;;4.25;2.10;;;23.10;57.70;;;;;;4720596;30;20055;-64
2022/05/06 12:04:08;;;;;;;4.97;2.70;;;23.20;58.90;;;;;;4723107;30;21467;-64
2022/05/06 12:06:47;;;;;;;2.72;1.92;;;23.00;58.40;;;;;;4722911;30;20048;-65
2022/05/06 12:09:22;;;;;;;7.25;2.03;;;23.00;59.10;;;;;;4725036;30;20058;-65
2022/05/06 12:12:07;;;;;;;5.00;2.97;;;22.90;58.10;;;;;;4722837;30;20059;-64
2022/05/06 12:14:35;;;;;;;2.40;1.92;;;22.90;59.00;;;;;;4727278;30;20096;-65
2022/05/06 12:17:05;;;;;;;5.45;2.10;;;23.00;57.40;;;;;;4706833;30;20051;-65
2022/05/06 12:19:41;;;;;;;5.15;1.98;;;23.00;59.40;;;;;;4697274;30;20051;-65
2022/05/06 12:22:20;;;;;;;6.00;1.95;;;22.90;59.20;;;;;;4725284;30;20101;-64
2022/05/06 12:24:55;;;;;;;3.75;2.15;;;22.90;59.00;;;;;;4726072;30;20056;-64
2022/05/06 12:27:32;;;;;;;3.17;2.25;;;22.90;59.80;;;;;;4723059;29;22164;-65
2022/05/06 12:30:01;;;;;;;3.38;1.92;;;23.00;58.80;;;;;;4724052;30;20062;-64
2022/05/06 12:32:28;;;;;;;6.65;2.25;;;23.00;60.30;;;;;;4704514;30;20062;-64
2022/05/06 12:35:05;;;;;;;5.22;2.50;;;23.00;59.60;;;;;;4725980;30;20048;-65
2022/05/06 12:37:33;;;;;;;3.75;1.90;;;23.10;61.80;;;;;;4725292;30;20051;-64
2022/05/06 12:40:02;;;;;;;3.13;1.83;;;23.10;58.80;;;;;;4723785;30;22565;-65
2022/05/06 12:42:29;;;;;;;3.65;2.08;;;23.00;57.40;;;;;;4724228;30;20744;-64
2022/05/06 12:45:16;;;;;;;2.30;1.90;;;22.90;57.50;;;;;;4717973;30;20181;-63
2022/05/06 12:50:29;;;;;;;2.08;1.88;;;22.80;57.30;;;;;;4724078;30;22525;-64
2022/05/06 12:52:56;;;;;;;2.50;2.03;;;22.80;57.20;;;;;;4727068;30;21331;-63
2022/05/06 12:55:23;;;;;;;5.63;2.28;;;22.90;57.40;;;;;;4717888;30;20067;-63
2022/05/06 12:57:50;;;;;;;4.75;2.15;;;22.90;56.20;;;;;;4721684;30;20159;-64
2022/05/06 13:00:17;;;;;;;3.45;2.20;;;22.90;56.90;;;;;;4713323;30;20741;-64
2022/05/06 13:02:44;;;;;;;2.05;1.67;;;22.90;53.50;;;;;;4704773;30;20048;-64
2022/05/06 13:05:11;;;;;;;9.05;2.30;;;22.80;55.40;;;;;;4725364;30;20064;-63
2022/05/06 13:07:39;;;;;;;2.63;2.00;;;22.80;56.50;;;;;;4726245;30;20054;-64
2022/05/06 13:10:06;;;;;;;3.03;2.10;;;22.90;56.60;;;;;;4724927;30;21049;-62
2022/05/06 13:12:33;;;;;;;2.53;2.28;;;22.80;57.10;;;;;;4713943;30;22597;-64
2022/05/06 13:15:00;;;;;;;2.28;1.80;;;22.70;56.80;;;;;;4724134;30;22539;-64
2022/05/06 13:17:27;;;;;;;2.53;1.90;;;22.70;55.20;;;;;;4723084;30;20051;-64
2022/05/06 13:19:55;;;;;;;3.53;2.45;;;22.60;58.70;;;;;;4717765;30;20062;-64
2022/05/06 13:22:22;;;;;;;3.80;1.75;;;22.60;56.90;;;;;;4706683;30;20071;-63
2022/05/06 13:24:51;;;;;;;2.75;1.85;;;22.60;57.10;;;;;;4714220;30;20156;-64
2022/05/06 13:27:18;;;;;;;2.05;1.85;;;22.50;57.70;;;;;;4698454;30;20130;-66
2022/05/06 13:29:45;;;;;;;4.88;1.90;;;22.40;58.10;;;;;;4722990;30;20210;-64
2022/05/06 13:32:12;;;;;;;3.38;2.40;;;22.40;57.60;;;;;;4723424;30;20051;-63
2022/05/06 13:34:39;;;;;;;3.72;2.75;;;22.30;59.00;;;;;;4723467;30;20082;-64
2022/05/06 13:37:08;;;;;;;3.35;2.25;;;22.40;58.70;;;;;;4708072;30;20055;-65
2022/05/06 13:39:35;;;;;;;5.70;2.13;;;22.30;59.70;;;;;;4706318;30;20056;-64
2022/05/06 13:42:02;;;;;;;2.83;1.70;;;22.30;60.90;;;;;;4723422;30;20048;-65